Time;durP1;ratioP1;P1;durP2;ratioP2;P2;SDS_P1;SDS_P2;PMS_P1;PMS_P2;Temp;Humidity;BMP_temperature;BMP_pressure;BME280_temperature;BME280_humidity;BME280_pressure;Samples;Min_cycle;Max_cycle;Signal;HPM_P1;HPM_P2
2023/10/29 00:00:54;;;;;;;2.50;1.20;;;;;;;;;;5028000;28;20415;-59
2023/10/29 00:03:19;;;;;;;3.00;1.10;;;;;;;;;;5027391;28;20423;-58
2023/10/29 00:05:45;;;;;;;4.07;1.10;;;;;;;;;;5028829;28;20411;-58
2023/10/29 00:08:10;;;;;;;3.30;1.20;;;;;;;;;;5027751;28;20766;-59
2023/10/29 00:10:35;;;;;;;3.20;1.17;;;;;;;;;;5031648;28;20403;-59
2023/10/29 00:13:02;;;;;;;2.33;0.93;;;;;;;;;;5030007;28;20900;-59
2023/10/29 00:15:27;;;;;;;2.57;0.83;;;;;;;;;;5012273;28;20748;-58
2023/10/29 00:17:52;;;;;;;1.85;0.73;;;;;;;;;;5018012;28;20414;-58
2023/10/29 00:20:18;;;;;;;2.30;0.80;;;;;;;;;;5030764;28;20908;-58
2023/10/29 00:22:43;;;;;;;3.17;0.97;;;;;;;;;;5031883;28;20462;-58
2023/10/29 00:25:08;;;;;;;2.63;0.87;;;;;;;;;;5031275;28;20403;-59
2023/10/29 00:27:33;;;;;;;3.40;1.10;;;;;;;;;;5030436;28;20758;-58
2023/10/29 00:29:59;;;;;;;2.30;0.80;;;;;;;;;;5031578;28;20746;-59
2023/10/29 00:32:24;;;;;;;3.47;0.77;;;;;;;;;;5031004;28;20391;-58
2023/10/29 00:34:49;;;;;;;3.30;1.00;;;;;;;;;;5030739;28;20407;-58
2023/10/29 00:37:17;;;;;;;2.17;0.70;;;;;;;;;;5030761;28;20421;-58
2023/10/29 00:39:42;;;;;;;4.05;0.90;;;;;;;;;;5030731;28;20482;-58
2023/10/29 00:42:09;;;;;;;2.97;0.70;;;;;;;;;;5030594;28;20518;-59
2023/10/29 00:44:34;;;;;;;3.00;1.00;;;;;;;;;;5031350;28;20814;-59
2023/10/29 00:46:59;;;;;;;1.97;0.70;;;;;;;;;;5030621;28;20430;-59
2023/10/29 00:49:25;;;;;;;1.77;0.80;;;;;;;;;;5029230;28;20999;-58
2023/10/29 00:51:50;;;;;;;2.30;0.80;;;;;;;;;;5031169;28;20766;-58
2023/10/29 00:54:15;;;;;;;2.17;0.90;;;;;;;;;;5010430;28;20492;-58
2023/10/29 00:56:41;;;;;;;1.90;0.90;;;;;;;;;;5011306;28;20405;-58
2023/10/29 00:59:06;;;;;;;3.03;0.87;;;;;;;;;;5009580;28;20409;-59
2023/10/29 01:01:32;;;;;;;2.10;0.90;;;;;;;;;;5009179;28;20779;-58
2023/10/29 01:03:59;;;;;;;2.35;0.88;;;;;;;;;;5010033;28;20768;-59
2023/10/29 01:06:25;;;;;;;2.05;1.00;;;;;;;;;;5010756;28;20911;-58
2023/10/29 01:08:50;;;;;;;3.23;0.87;;;;;;;;;;5010614;28;20475;-58
2023/10/29 01:11:15;;;;;;;1.93;0.80;;;;;;;;;;5011015;28;20494;-59
2023/10/29 01:13:41;;;;;;;2.90;0.80;;;;;;;;;;5010924;28;20779;-58
2023/10/29 01:16:06;;;;;;;2.20;0.63;;;;;;;;;;5010095;28;20401;-59
2023/10/29 01:18:32;;;;;;;1.83;0.73;;;;;;;;;;5022344;28;20399;-59
2023/10/29 01:20:57;;;;;;;3.00;0.90;;;;;;;;;;5030836;28;20453;-58
2023/10/29 01:23:23;;;;;;;2.15;0.70;;;;;;;;;;5029544;28;20399;-58
2023/10/29 01:25:48;;;;;;;2.27;0.70;;;;;;;;;;5030732;28;20470;-58
2023/10/29 01:28:13;;;;;;;1.37;0.70;;;;;;;;;;5029935;28;20399;-58
2023/10/29 01:30:38;;;;;;;3.13;0.90;;;;;;;;;;5029771;28;20403;-58
2023/10/29 01:33:04;;;;;;;2.70;1.00;;;;;;;;;;5030076;28;20453;-59
2023/10/29 01:35:29;;;;;;;2.50;0.70;;;;;;;;;;5030548;28;20407;-58
2023/10/29 01:37:54;;;;;;;2.20;0.70;;;;;;;;;;5029653;28;20391;-59
2023/10/29 01:40:20;;;;;;;1.45;0.70;;;;;;;;;;5030059;28;20448;-59
2023/10/29 01:42:46;;;;;;;2.17;0.80;;;;;;;;;;5030133;28;20426;-58
2023/10/29 01:45:14;;;;;;;2.40;0.68;;;;;;;;;;5028935;28;20410;-59
2023/10/29 01:47:39;;;;;;;4.15;0.70;;;;;;;;;;5030356;28;20894;-59
2023/10/29 01:50:05;;;;;;;2.13;0.70;;;;;;;;;;5029148;28;20414;-59
2023/10/29 01:52:30;;;;;;;1.83;0.70;;;;;;;;;;5029651;28;20402;-59
2023/10/29 01:54:57;;;;;;;1.60;0.60;;;;;;;;;;5030696;28;20478;-59
2023/10/29 01:57:22;;;;;;;1.45;0.52;;;;;;;;;;5025162;28;20402;-58
2023/10/29 01:59:47;;;;;;;2.13;0.60;;;;;;;;;;5027876;28;20407;-58
2023/10/29 02:02:13;;;;;;;2.20;0.80;;;;;;;;;;5037220;28;20856;-58
2023/10/29 02:04:38;;;;;;;1.70;0.63;;;;;;;;;;5023492;28;20422;-58
2023/10/29 02:07:03;;;;;;;3.13;0.75;;;;;;;;;;5023700;28;20483;-58
2023/10/29 02:09:29;;;;;;;3.30;0.80;;;;;;;;;;5025480;28;20395;-58
2023/10/29 02:11:55;;;;;;;2.60;0.90;;;;;;;;;;5025576;28;20842;-58
2023/10/29 02:14:20;;;;;;;2.47;0.70;;;;;;;;;;5023678;28;20970;-59
2023/10/29 02:16:46;;;;;;;2.60;0.60;;;;;;;;;;5024782;28;20831;-58
2023/10/29 02:19:12;;;;;;;2.90;0.90;;;;;;;;;;5022987;28;20991;-58
2023/10/29 02:21:37;;;;;;;2.37;0.70;;;;;;;;;;5025012;28;20404;-58
2023/10/29 02:24:02;;;;;;;2.17;0.85;;;;;;;;;;5015540;28;20412;-59
2023/10/29 02:26:28;;;;;;;3.13;0.90;;;;;;;;;;5020888;28;20833;-58
2023/10/29 02:28:53;;;;;;;2.67;0.70;;;;;;;;;;5024985;28;21186;-58
2023/10/29 02:31:19;;;;;;;2.77;0.73;;;;;;;;;;5023571;28;20497;-58
2023/10/29 02:33:44;;;;;;;1.80;0.70;;;;;;;;;;5023500;28;20406;-58
2023/10/29 02:36:10;;;;;;;4.03;0.87;;;;;;;;;;5026023;28;20418;-58
2023/10/29 02:38:37;;;;;;;2.80;0.90;;;;;;;;;;5023246;28;20404;-58
2023/10/29 02:41:02;;;;;;;2.22;0.80;;;;;;;;;;5022121;28;20403;-58
2023/10/29 02:43:28;;;;;;;2.87;0.70;;;;;;;;;;5020113;28;20402;-58
2023/10/29 02:45:53;;;;;;;1.48;0.60;;;;;;;;;;5016420;28;20907;-58
2023/10/29 02:48:20;;;;;;;2.03;0.63;;;;;;;;;;5016160;28;20405;-58
2023/10/29 02:50:45;;;;;;;1.77;0.70;;;;;;;;;;5026214;28;20414;-58
2023/10/29 02:53:11;;;;;;;3.30;0.52;;;;;;;;;;5024018;28;20500;-58
2023/10/29 02:55:36;;;;;;;3.33;0.63;;;;;;;;;;5024117;28;20411;-58
2023/10/29 02:58:01;;;;;;;2.50;0.73;;;;;;;;;;5024318;28;21291;-59
2023/10/29 03:00:27;;;;;;;2.23;0.60;;;;;;;;;;5024946;28;20407;-58
2023/10/29 03:02:52;;;;;;;2.90;0.63;;;;;;;;;;5005237;28;20489;-58
2023/10/29 03:05:17;;;;;;;1.90;0.63;;;;;;;;;;5001821;28;20421;-59
2023/10/29 03:07:42;;;;;;;1.87;0.67;;;;;;;;;;5000982;28;20454;-58
2023/10/29 03:10:08;;;;;;;2.37;0.70;;;;;;;;;;4999215;28;20537;-58
2023/10/29 03:12:33;;;;;;;2.47;0.77;;;;;;;;;;5005778;28;20442;-58
2023/10/29 03:15:00;;;;;;;2.00;0.60;;;;;;;;;;5009113;28;20444;-58
2023/10/29 03:17:25;;;;;;;2.15;0.80;;;;;;;;;;5008401;28;20402;-58
2023/10/29 03:19:51;;;;;;;1.53;0.70;;;;;;;;;;5007542;28;20423;-58
2023/10/29 03:22:16;;;;;;;2.97;0.87;;;;;;;;;;5007100;28;20401;-58
2023/10/29 03:24:41;;;;;;;1.73;0.60;;;;;;;;;;5010238;28;20414;-58
2023/10/29 03:27:07;;;;;;;1.40;0.60;;;;;;;;;;5004691;28;20914;-59
2023/10/29 03:29:32;;;;;;;3.00;0.70;;;;;;;;;;4998340;28;20408;-58
2023/10/29 03:31:57;;;;;;;1.57;0.50;;;;;;;;;;4999967;28;20407;-58
2023/10/29 03:34:22;;;;;;;2.37;0.60;;;;;;;;;;4998162;28;20393;-58
2023/10/29 03:36:48;;;;;;;1.47;0.53;;;;;;;;;;5008986;28;21043;-58
2023/10/29 03:39:13;;;;;;;2.30;0.60;;;;;;;;;;5006007;28;20401;-58
2023/10/29 03:41:38;;;;;;;2.30;0.70;;;;;;;;;;5007500;28;20401;-58
2023/10/29 03:44:04;;;;;;;2.05;0.77;;;;;;;;;;5007457;28;20413;-59
2023/10/29 03:46:29;;;;;;;3.57;0.50;;;;;;;;;;5006812;28;20536;-58
2023/10/29 03:48:55;;;;;;;2.03;0.63;;;;;;;;;;5006336;28;20423;-58
2023/10/29 03:51:20;;;;;;;1.10;0.50;;;;;;;;;;5001647;28;20389;-58
2023/10/29 03:53:45;;;;;;;2.40;0.60;;;;;;;;;;4998918;28;20415;-58
2023/10/29 03:56:10;;;;;;;3.60;0.80;;;;;;;;;;4999385;28;20515;-59
2023/10/29 03:58:36;;;;;;;2.93;0.70;;;;;;;;;;5007627;28;20397;-58
2023/10/29 04:01:01;;;;;;;2.77;0.60;;;;;;;;;;5006833;28;21250;-58
2023/10/29 04:03:28;;;;;;;2.30;0.43;;;;;;;;;;5006541;28;20900;-58
2023/10/29 04:05:55;;;;;;;0.70;0.40;;;;;;;;;;5006229;28;21621;-58
2023/10/29 04:08:20;;;;;;;1.30;0.47;;;;;;;;;;5007518;28;20496;-58
2023/10/29 04:10:45;;;;;;;2.37;0.60;;;;;;;;;;5006077;28;20506;-58
2023/10/29 04:13:11;;;;;;;3.37;0.60;;;;;;;;;;5001567;28;20788;-58
2023/10/29 04:15:36;;;;;;;2.67;0.77;;;;;;;;;;5000475;28;20397;-58
2023/10/29 04:18:01;;;;;;;3.53;0.50;;;;;;;;;;4997923;28;20409;-58
2023/10/29 04:20:27;;;;;;;2.07;0.60;;;;;;;;;;5004941;28;20884;-58
2023/10/29 04:22:53;;;;;;;1.70;0.52;;;;;;;;;;5007994;28;20908;-58
2023/10/29 04:25:18;;;;;;;1.87;0.40;;;;;;;;;;5005876;28;20417;-58
2023/10/29 04:27:43;;;;;;;1.50;0.50;;;;;;;;;;5006067;28;20743;-58
2023/10/29 04:30:09;;;;;;;1.43;0.40;;;;;;;;;;5007493;28;20409;-58
2023/10/29 04:32:34;;;;;;;3.10;0.40;;;;;;;;;;5006624;28;20511;-58
2023/10/29 04:34:59;;;;;;;2.93;0.57;;;;;;;;;;5003376;28;21015;-58
2023/10/29 04:37:25;;;;;;;1.20;0.47;;;;;;;;;;4997749;28;20768;-58
2023/10/29 04:39:50;;;;;;;1.33;0.60;;;;;;;;;;4999549;28;20411;-58
2023/10/29 04:42:15;;;;;;;2.77;0.60;;;;;;;;;;5000721;28;20419;-58
2023/10/29 04:44:41;;;;;;;2.13;0.50;;;;;;;;;;5006669;28;20910;-58
2023/10/29 04:47:06;;;;;;;1.30;0.50;;;;;;;;;;5007436;28;20493;-58
2023/10/29 04:49:31;;;;;;;2.03;0.50;;;;;;;;;;5005757;28;20418;-58
2023/10/29 04:51:57;;;;;;;2.00;0.50;;;;;;;;;;5005903;28;20412;-58
2023/10/29 04:54:22;;;;;;;2.00;0.50;;;;;;;;;;5006451;28;20408;-58
2023/10/29 04:56:47;;;;;;;2.47;0.50;;;;;;;;;;5005375;28;20797;-58
2023/10/29 04:59:13;;;;;;;2.87;0.50;;;;;;;;;;4998277;28;20437;-58
2023/10/29 05:01:38;;;;;;;2.53;0.70;;;;;;;;;;5007354;28;20411;-58
2023/10/29 05:04:03;;;;;;;1.87;0.50;;;;;;;;;;5017453;28;20990;-58
2023/10/29 05:06:29;;;;;;;3.73;0.80;;;;;;;;;;5024876;28;20418;-58
2023/10/29 05:08:55;;;;;;;3.10;0.80;;;;;;;;;;5025544;28;20400;-58
2023/10/29 05:11:20;;;;;;;3.08;0.63;;;;;;;;;;5029140;28;20414;-58
2023/10/29 05:13:45;;;;;;;4.17;0.80;;;;;;;;;;5025384;28;20413;-59
2023/10/29 05:16:11;;;;;;;2.63;0.60;;;;;;;;;;5026070;28;20403;-60
2023/10/29 05:18:37;;;;;;;3.25;0.70;;;;;;;;;;5041426;28;20497;-58
2023/10/29 05:21:02;;;;;;;2.83;0.80;;;;;;;;;;5045796;28;20413;-58
2023/10/29 05:23:28;;;;;;;4.73;1.10;;;;;;;;;;5047184;28;20406;-58
2023/10/29 05:25:53;;;;;;;2.63;0.93;;;;;;;;;;5044462;28;20409;-58
2023/10/29 05:28:19;;;;;;;2.60;0.70;;;;;;;;;;5046567;28;20417;-59
2023/10/29 05:30:44;;;;;;;3.77;0.70;;;;;;;;;;5047739;28;20514;-58
2023/10/29 05:33:09;;;;;;;3.17;0.70;;;;;;;;;;5044627;28;20810;-58
2023/10/29 05:35:35;;;;;;;2.83;0.60;;;;;;;;;;5046336;28;20854;-58
2023/10/29 05:38:00;;;;;;;3.10;0.70;;;;;;;;;;5047628;28;20401;-58
2023/10/29 05:40:25;;;;;;;2.37;0.60;;;;;;;;;;5043913;28;20389;-59
2023/10/29 05:42:50;;;;;;;3.85;0.80;;;;;;;;;;5045737;28;20460;-59
2023/10/29 05:45:16;;;;;;;4.07;0.70;;;;;;;;;;5047006;28;20402;-59
2023/10/29 05:47:41;;;;;;;2.50;0.73;;;;;;;;;;5046402;28;20895;-59
2023/10/29 05:50:07;;;;;;;3.50;0.60;;;;;;;;;;5044792;28;20417;-59
2023/10/29 05:52:32;;;;;;;2.83;0.65;;;;;;;;;;5045027;28;20422;-59
2023/10/29 05:55:00;;;;;;;3.23;0.67;;;;;;;;;;5046394;28;20466;-59
2023/10/29 05:57:25;;;;;;;3.80;0.90;;;;;;;;;;5028604;28;20475;-59
2023/10/29 05:59:50;;;;;;;2.03;0.60;;;;;;;;;;5047512;28;20409;-59
2023/10/29 06:02:16;;;;;;;2.22;0.57;;;;;;;;;;5032256;28;20407;-59
2023/10/29 06:04:41;;;;;;;4.90;0.90;;;;;;;;;;5022679;28;20403;-59
2023/10/29 06:07:07;;;;;;;2.37;0.70;;;;;;;;;;5021419;28;20403;-59
2023/10/29 06:09:33;;;;;;;2.70;0.90;;;;;;;;;;5024191;28;20901;-59
2023/10/29 06:11:58;;;;;;;2.77;0.70;;;;;;;;;;5023067;28;20453;-58
2023/10/29 06:14:23;;;;;;;1.87;0.50;;;;;;;;;;5022598;28;20460;-59
2023/10/29 06:16:55;;;;;;;2.50;0.53;;;;;;;;;;5023608;28;20407;-58
2023/10/29 06:19:21;;;;;;;2.13;0.50;;;;;;;;;;5022414;28;20851;-58
2023/10/29 06:21:46;;;;;;;2.70;0.50;;;;;;;;;;5025388;28;20917;-58
2023/10/29 06:24:11;;;;;;;2.63;0.60;;;;;;;;;;5019513;28;20410;-58
2023/10/29 06:26:37;;;;;;;2.40;0.60;;;;;;;;;;5025502;28;20525;-57
2023/10/29 06:29:02;;;;;;;1.50;0.50;;;;;;;;;;5025614;28;20414;-58
2023/10/29 06:31:28;;;;;;;2.83;0.60;;;;;;;;;;5026787;28;20402;-58
2023/10/29 06:33:53;;;;;;;3.22;0.70;;;;;;;;;;5026434;28;20411;-58
2023/10/29 06:36:19;;;;;;;3.23;0.47;;;;;;;;;;5024684;28;20414;-58
2023/10/29 06:38:44;;;;;;;2.80;0.60;;;;;;;;;;5029129;28;20402;-58
2023/10/29 06:41:09;;;;;;;3.85;0.80;;;;;;;;;;5022637;28;20807;-58
2023/10/29 06:43:34;;;;;;;2.73;0.50;;;;;;;;;;5026895;28;20414;-58
2023/10/29 06:46:00;;;;;;;4.80;0.60;;;;;;;;;;5030376;28;20418;-58
2023/10/29 06:48:25;;;;;;;3.03;0.50;;;;;;;;;;5020023;28;20395;-58
2023/10/29 06:50:50;;;;;;;2.57;0.50;;;;;;;;;;5027525;28;21118;-58
2023/10/29 06:53:16;;;;;;;2.43;0.50;;;;;;;;;;5028049;28;20422;-58
2023/10/29 06:55:42;;;;;;;4.00;0.80;;;;;;;;;;5021450;28;20422;-58
2023/10/29 06:58:07;;;;;;;3.28;0.50;;;;;;;;;;5024788;28;20758;-58
2023/10/29 07:00:33;;;;;;;2.47;0.50;;;;;;;;;;5028917;28;20913;-58
2023/10/29 07:02:59;;;;;;;4.03;0.60;;;;;;;;;;5056943;28;20415;-58
2023/10/29 07:05:25;;;;;;;4.10;0.75;;;;;;;;;;5051851;28;20467;-58
2023/10/29 07:07:50;;;;;;;3.88;0.73;;;;;;;;;;5052800;28;20401;-58
2023/10/29 07:10:16;;;;;;;4.37;0.70;;;;;;;;;;5060193;28;20422;-58
2023/10/29 07:12:41;;;;;;;4.55;0.90;;;;;;;;;;5066701;28;20486;-57
2023/10/29 07:15:09;;;;;;;4.73;0.70;;;;;;;;;;5064629;28;20445;-57
2023/10/29 07:17:34;;;;;;;5.18;1.05;;;;;;;;;;5058737;28;20391;-57
2023/10/29 07:20:00;;;;;;;5.03;1.00;;;;;;;;;;5054785;28;20908;-57
2023/10/29 07:22:25;;;;;;;4.93;0.93;;;;;;;;;;5064907;28;20395;-57
2023/10/29 07:24:50;;;;;;;4.73;0.70;;;;;;;;;;5060278;28;20481;-57
2023/10/29 07:27:16;;;;;;;5.73;1.10;;;;;;;;;;5065434;28;20401;-57
2023/10/29 07:29:42;;;;;;;5.28;0.90;;;;;;;;;;5061004;28;20413;-57
2023/10/29 07:32:07;;;;;;;6.77;1.50;;;;;;;;;;5061295;28;20416;-57
2023/10/29 07:34:33;;;;;;;4.13;0.80;;;;;;;;;;5046777;28;21059;-57
2023/10/29 07:36:58;;;;;;;4.10;1.00;;;;;;;;;;5058277;28;20500;-57
2023/10/29 07:39:23;;;;;;;5.70;1.20;;;;;;;;;;5062450;28;20386;-57
2023/10/29 07:41:49;;;;;;;6.40;1.10;;;;;;;;;;5065364;28;20844;-57
2023/10/29 07:44:14;;;;;;;5.00;1.20;;;;;;;;;;5069495;28;20392;-57
2023/10/29 07:46:39;;;;;;;6.23;1.40;;;;;;;;;;5055231;28;20958;-57
2023/10/29 07:49:05;;;;;;;6.93;1.30;;;;;;;;;;5063690;28;20755;-57
2023/10/29 07:51:30;;;;;;;5.97;1.53;;;;;;;;;;5060937;28;20423;-57
2023/10/29 07:53:55;;;;;;;5.23;1.43;;;;;;;;;;5059098;28;20545;-57
2023/10/29 07:56:21;;;;;;;5.13;1.20;;;;;;;;;;5062377;28;20418;-57
2023/10/29 07:58:46;;;;;;;6.90;1.20;;;;;;;;;;5068036;28;20604;-57
2023/10/29 08:01:13;;;;;;;6.00;1.23;;;;;;;;;;5068542;28;20861;-57
2023/10/29 08:03:39;;;;;;;6.95;1.35;;;;;;;;;;5056533;28;20399;-57
2023/10/29 08:06:04;;;;;;;5.78;1.10;;;;;;;;;;5057102;28;20504;-57
2023/10/29 08:08:29;;;;;;;6.87;1.47;;;;;;;;;;5065416;28;20403;-57
2023/10/29 08:10:55;;;;;;;6.57;1.30;;;;;;;;;;5062028;28;20820;-57
2023/10/29 08:13:20;;;;;;;6.15;1.20;;;;;;;;;;5062713;28;20455;-57
2023/10/29 08:15:45;;;;;;;6.13;1.10;;;;;;;;;;5059906;28;20429;-57
2023/10/29 08:18:11;;;;;;;6.90;1.50;;;;;;;;;;5061274;28;20802;-57
2023/10/29 08:20:36;;;;;;;7.63;1.30;;;;;;;;;;5061624;28;20429;-57
2023/10/29 08:23:01;;;;;;;6.93;1.48;;;;;;;;;;5064357;28;20411;-58
2023/10/29 08:25:27;;;;;;;8.80;1.23;;;;;;;;;;5063716;28;20391;-57
2023/10/29 08:27:52;;;;;;;6.93;1.50;;;;;;;;;;5060033;28;20410;-57
2023/10/29 08:30:17;;;;;;;7.10;1.20;;;;;;;;;;5063105;28;20404;-57
2023/10/29 08:32:43;;;;;;;7.33;1.53;;;;;;;;;;5064138;28;20388;-57
2023/10/29 08:35:08;;;;;;;7.97;1.37;;;;;;;;;;5058966;28;20486;-57
2023/10/29 08:37:34;;;;;;;6.88;1.20;;;;;;;;;;5065616;28;20418;-57
2023/10/29 08:39:59;;;;;;;8.37;3.07;;;;;;;;;;5070599;28;20890;-56
2023/10/29 08:42:28;;;;;;;7.07;1.30;;;;;;;;;;5065378;28;20389;-56
2023/10/29 08:44:55;;;;;;;7.03;1.42;;;;;;;;;;5064332;28;20864;-57
2023/10/29 08:47:20;;;;;;;5.63;1.20;;;;;;;;;;5059358;28;20738;-56
2023/10/29 08:49:45;;;;;;;7.97;1.57;;;;;;;;;;5054680;28;20400;-56
2023/10/29 08:52:13;;;;;;;7.80;1.40;;;;;;;;;;5062993;28;20419;-56
2023/10/29 08:54:39;;;;;;;6.88;1.60;;;;;;;;;;5058638;28;20416;-56
2023/10/29 08:57:04;;;;;;;9.80;1.67;;;;;;;;;;5045905;28;20810;-56
2023/10/29 08:59:30;;;;;;;7.23;1.70;;;;;;;;;;5063926;28;20387;-56
2023/10/29 09:01:55;;;;;;;7.17;1.30;;;;;;;;;;5058743;28;20408;-56
2023/10/29 09:04:22;;;;;;;5.20;1.40;;;;;;;;;;5062651;28;20901;-56
2023/10/29 09:06:47;;;;;;;5.77;1.30;;;;;;;;;;5063749;28;20400;-57
2023/10/29 09:09:13;;;;;;;6.43;1.43;;;;;;;;;;5060873;28;20411;-56
2023/10/29 09:11:38;;;;;;;7.88;1.52;;;;;;;;;;5061969;28;20430;-56
2023/10/29 09:14:04;;;;;;;6.00;1.60;;;;;;;;;;5063207;28;20460;-57
2023/10/29 09:16:30;;;;;;;6.18;1.40;;;;;;;;;;5062642;28;20395;-56
2023/10/29 09:18:55;;;;;;;11.17;1.40;;;;;;;;;;5059446;28;20408;-57
2023/10/29 09:21:20;;;;;;;6.13;1.20;;;;;;;;;;5062631;28;20396;-56
2023/10/29 09:23:46;;;;;;;7.77;1.33;;;;;;;;;;5063668;28;20396;-56
2023/10/29 09:26:11;;;;;;;7.83;1.50;;;;;;;;;;5041021;28;20399;-56
2023/10/29 09:28:37;;;;;;;7.63;1.50;;;;;;;;;;5062967;28;20405;-56
2023/10/29 09:31:04;;;;;;;7.33;1.37;;;;;;;;;;5062487;28;20491;-57
2023/10/29 09:33:29;;;;;;;7.00;1.30;;;;;;;;;;5058578;28;20496;-56
2023/10/29 09:35:54;;;;;;;7.40;1.37;;;;;;;;;;5062872;28;20424;-57
2023/10/29 09:38:20;;;;;;;6.77;1.20;;;;;;;;;;5063383;28;20389;-56
2023/10/29 09:40:46;;;;;;;6.65;1.23;;;;;;;;;;5059932;28;20396;-56
2023/10/29 09:43:12;;;;;;;7.38;1.17;;;;;;;;;;5060985;28;20415;-57
2023/10/29 09:45:38;;;;;;;6.43;1.33;;;;;;;;;;5063693;28;20401;-56
2023/10/29 09:48:03;;;;;;;6.87;1.30;;;;;;;;;;5060432;28;20416;-57
2023/10/29 09:50:29;;;;;;;6.10;1.60;;;;;;;;;;5060036;28;20918;-56
2023/10/29 09:52:54;;;;;;;5.73;1.20;;;;;;;;;;5063664;28;20407;-56
2023/10/29 09:55:20;;;;;;;6.60;1.10;;;;;;;;;;5060388;28;20399;-57
2023/10/29 09:57:46;;;;;;;5.93;1.20;;;;;;;;;;5059237;28;20416;-58
2023/10/29 10:00:11;;;;;;;8.23;1.60;;;;;;;;;;5065445;28;20404;-58
2023/10/29 10:02:53;;;;;;;5.93;1.20;;;;;;;;;;5068259;28;20490;-57
2023/10/29 10:05:20;;;;;;;5.03;1.00;;;;;;;;;;5069315;28;20882;-58
2023/10/29 10:07:45;;;;;;;5.85;1.10;;;;;;;;;;5069982;28;20396;-57
2023/10/29 10:10:10;;;;;;;5.63;1.00;;;;;;;;;;5068505;28;20402;-57
2023/10/29 10:12:45;;;;;;;5.43;1.17;;;;;;;;;;5069342;28;20474;-58
2023/10/29 10:15:11;;;;;;;4.82;1.00;;;;;;;;;;5069017;28;20482;-58
2023/10/29 10:17:36;;;;;;;4.97;1.13;;;;;;;;;;5064909;28;20443;-58
2023/10/29 10:20:06;;;;;;;7.07;1.10;;;;;;;;;;5052848;28;20404;-58
2023/10/29 10:22:33;;;;;;;5.75;1.20;;;;;;;;;;5069769;28;20379;-58
2023/10/29 10:24:58;;;;;;;5.18;1.35;;;;;;;;;;5068183;28;20392;-58
2023/10/29 10:27:23;;;;;;;7.57;1.53;;;;;;;;;;5054839;28;20457;-58
2023/10/29 10:29:50;;;;;;;5.27;1.07;;;;;;;;;;5049674;28;20429;-58
2023/10/29 10:32:17;;;;;;;8.23;1.70;;;;;;;;;;5044736;28;20413;-57
2023/10/29 10:34:47;;;;;;;6.20;1.10;;;;;;;;;;5006664;28;20419;-57
2023/10/29 10:37:13;;;;;;;7.53;1.40;;;;;;;;;;4994429;28;20811;-58
2023/10/29 10:39:38;;;;;;;5.45;1.02;;;;;;;;;;5017469;28;20463;-57
2023/10/29 10:42:04;;;;;;;5.77;1.40;;;;;;;;;;5034270;28;20405;-58
2023/10/29 10:44:29;;;;;;;7.20;1.27;;;;;;;;;;5042601;28;20784;-57
2023/10/29 10:46:57;;;;;;;4.95;1.25;;;;;;;;;;5043176;28;20401;-57
2023/10/29 10:49:22;;;;;;;6.22;1.10;;;;;;;;;;5033307;28;20387;-57
2023/10/29 10:51:49;;;;;;;5.00;1.20;;;;;;;;;;5042345;28;20397;-57
2023/10/29 10:54:20;;;;;;;6.57;1.40;;;;;;;;;;5034133;28;20928;-57
2023/10/29 10:56:46;;;;;;;6.40;1.50;;;;;;;;;;5016691;28;20596;-58
2023/10/29 10:59:11;;;;;;;7.17;1.50;;;;;;;;;;5014279;28;20391;-57
2023/10/29 11:01:37;;;;;;;5.73;1.40;;;;;;;;;;5008699;28;20447;-58
2023/10/29 11:04:03;;;;;;;6.90;1.40;;;;;;;;;;5000692;28;20440;-57
2023/10/29 11:06:29;;;;;;;6.00;1.20;;;;;;;;;;5004679;28;20408;-58
2023/10/29 11:08:55;;;;;;;7.68;1.40;;;;;;;;;;5022800;28;20407;-57
2023/10/29 11:11:21;;;;;;;5.97;1.20;;;;;;;;;;5002397;28;20477;-58
2023/10/29 11:13:46;;;;;;;8.55;1.67;;;;;;;;;;5003280;28;20433;-57
2023/10/29 11:16:23;;;;;;;8.50;1.70;;;;;;;;;;5003078;28;20393;-57
2023/10/29 11:18:48;;;;;;;7.88;1.25;;;;;;;;;;5005044;28;20409;-57
2023/10/29 11:21:34;;;;;;;6.53;1.40;;;;;;;;;;4994746;28;20912;-57
2023/10/29 11:24:15;;;;;;;7.05;1.40;;;;;;;;;;4996925;28;20415;-58
2023/10/29 11:26:41;;;;;;;8.77;1.50;;;;;;;;;;5004232;28;20412;-58
2023/10/29 11:29:06;;;;;;;7.40;1.25;;;;;;;;;;5011113;28;20469;-58
2023/10/29 11:31:31;;;;;;;6.97;1.30;;;;;;;;;;5011660;28;20808;-57
2023/10/29 11:33:57;;;;;;;6.20;1.30;;;;;;;;;;5010744;28;20514;-57
2023/10/29 11:36:29;;;;;;;8.17;2.10;;;;;;;;;;5007304;28;20407;-57
2023/10/29 11:38:58;;;;;;;5.83;1.30;;;;;;;;;;5013723;28;20419;-58
2023/10/29 11:41:31;;;;;;;19.77;9.10;;;;;;;;;;5014857;28;20408;-58
2023/10/29 11:44:15;;;;;;;6.78;1.50;;;;;;;;;;5003959;28;20489;-57
2023/10/29 11:46:56;;;;;;;8.32;1.50;;;;;;;;;;5005852;28;20458;-58
2023/10/29 11:49:22;;;;;;;8.23;1.60;;;;;;;;;;5009209;28;20828;-57
2023/10/29 11:51:52;;;;;;;8.90;3.70;;;;;;;;;;5011307;28;20533;-57
2023/10/29 11:54:17;;;;;;;9.10;2.05;;;;;;;;;;5011929;28;20424;-58
2023/10/29 11:56:43;;;;;;;7.27;1.90;;;;;;;;;;5012028;28;20443;-57
2023/10/29 11:59:08;;;;;;;10.15;2.70;;;;;;;;;;5008600;28;20938;-58
2023/10/29 12:01:35;;;;;;;9.30;2.43;;;;;;;;;;5019295;28;20932;-57
2023/10/29 12:04:00;;;;;;;8.37;2.10;;;;;;;;;;5013646;28;20496;-58
2023/10/29 12:06:38;;;;;;;8.20;2.85;;;;;;;;;;5022940;28;20416;-58
2023/10/29 12:09:13;;;;;;;5.88;1.50;;;;;;;;;;5021895;28;20410;-57
2023/10/29 12:11:38;;;;;;;7.22;2.30;;;;;;;;;;5029505;28;20405;-58
2023/10/29 12:14:04;;;;;;;7.43;1.70;;;;;;;;;;5029666;28;20437;-58
2023/10/29 12:16:30;;;;;;;8.03;1.70;;;;;;;;;;5030307;28;20413;-58
2023/10/29 12:18:56;;;;;;;6.90;1.60;;;;;;;;;;5031028;28;20407;-58
2023/10/29 12:21:21;;;;;;;7.50;1.33;;;;;;;;;;5030127;28;20400;-58
2023/10/29 12:23:46;;;;;;;7.33;1.30;;;;;;;;;;5029190;28;20442;-58
2023/10/29 12:26:13;;;;;;;7.32;1.15;;;;;;;;;;5014704;28;20882;-58
2023/10/29 12:28:38;;;;;;;7.20;1.45;;;;;;;;;;5023551;28;20402;-58
2023/10/29 12:31:03;;;;;;;8.13;1.50;;;;;;;;;;5018395;28;20414;-58
2023/10/29 12:33:31;;;;;;;6.77;1.30;;;;;;;;;;5025164;28;20413;-58
2023/10/29 12:35:59;;;;;;;6.63;1.45;;;;;;;;;;5031229;28;20422;-58
2023/10/29 12:38:25;;;;;;;8.43;1.35;;;;;;;;;;5028900;28;20405;-58
2023/10/29 12:41:09;;;;;;;10.35;1.50;;;;;;;;;;5033432;28;20429;-58
2023/10/29 12:43:35;;;;;;;9.55;1.48;;;;;;;;;;5024289;28;20407;-58
2023/10/29 12:46:01;;;;;;;4.72;1.40;;;;;;;;;;5034121;28;20945;-59
2023/10/29 12:48:27;;;;;;;7.90;1.52;;;;;;;;;;5027696;28;20726;-58
2023/10/29 12:50:52;;;;;;;8.05;1.40;;;;;;;;;;5021898;28;20565;-58
2023/10/29 12:53:21;;;;;;;7.53;1.37;;;;;;;;;;5021626;28;21686;-58
2023/10/29 12:55:46;;;;;;;7.50;1.67;;;;;;;;;;5008653;28;21318;-57
2023/10/29 12:58:11;;;;;;;6.50;1.40;;;;;;;;;;5029859;28;20976;-58
2023/10/29 13:00:37;;;;;;;6.10;1.20;;;;;;;;;;5031152;28;20460;-58
2023/10/29 13:03:04;;;;;;;8.00;1.60;;;;;;;;;;5031590;28;20407;-58
2023/10/29 13:05:30;;;;;;;8.02;1.50;;;;;;;;;;5033917;28;20849;-58
2023/10/29 13:07:57;;;;;;;5.38;1.27;;;;;;;;;;5038167;28;20410;-58
2023/10/29 13:10:22;;;;;;;6.07;1.10;;;;;;;;;;5032553;28;20463;-58
2023/10/29 13:12:48;;;;;;;6.00;1.40;;;;;;;;;;5023903;28;21127;-58
2023/10/29 13:15:14;;;;;;;8.52;1.50;;;;;;;;;;5028758;28;20431;-58
2023/10/29 13:17:40;;;;;;;6.82;1.38;;;;;;;;;;5033606;28;20407;-57
2023/10/29 13:20:06;;;;;;;5.95;1.17;;;;;;;;;;5030146;28;20410;-58
2023/10/29 13:22:31;;;;;;;6.00;1.27;;;;;;;;;;5034948;28;20434;-58
2023/10/29 13:24:58;;;;;;;6.35;1.30;;;;;;;;;;5032054;28;20769;-58
2023/10/29 13:27:25;;;;;;;6.45;1.55;;;;;;;;;;5031020;28;20403;-57
2023/10/29 13:29:50;;;;;;;6.85;1.40;;;;;;;;;;5034269;28;20410;-58
2023/10/29 13:32:15;;;;;;;6.57;1.50;;;;;;;;;;5042650;28;20402;-58
2023/10/29 13:34:41;;;;;;;5.83;1.40;;;;;;;;;;5040812;28;20565;-58
2023/10/29 13:37:06;;;;;;;7.80;1.40;;;;;;;;;;5026493;28;20418;-58
2023/10/29 13:39:31;;;;;;;5.93;1.20;;;;;;;;;;5026507;28;20454;-58
2023/10/29 13:41:57;;;;;;;8.05;1.30;;;;;;;;;;5023452;28;20405;-58
2023/10/29 13:44:23;;;;;;;6.73;1.20;;;;;;;;;;5028113;28;20914;-58
2023/10/29 13:46:48;;;;;;;7.35;1.30;;;;;;;;;;5034404;28;20401;-58
2023/10/29 13:49:13;;;;;;;6.47;1.40;;;;;;;;;;5029446;28;20955;-58
2023/10/29 13:51:41;;;;;;;7.90;1.60;;;;;;;;;;5032207;28;20403;-58
2023/10/29 13:54:08;;;;;;;9.50;1.40;;;;;;;;;;5034905;28;20429;-58
2023/10/29 13:56:33;;;;;;;7.53;1.55;;;;;;;;;;5029693;28;20971;-58
2023/10/29 13:58:59;;;;;;;6.40;1.25;;;;;;;;;;5029417;28;20410;-58
2023/10/29 14:01:24;;;;;;;8.23;1.40;;;;;;;;;;5025244;28;20515;-58
2023/10/29 14:03:50;;;;;;;6.43;1.20;;;;;;;;;;5023406;28;20487;-58
2023/10/29 14:06:15;;;;;;;7.20;1.67;;;;;;;;;;5025158;28;20584;-58
2023/10/29 14:08:41;;;;;;;8.15;1.90;;;;;;;;;;5034286;28;20420;-58
2023/10/29 14:11:06;;;;;;;6.93;1.30;;;;;;;;;;5030960;28;20898;-58
2023/10/29 14:13:31;;;;;;;8.10;1.63;;;;;;;;;;5031112;28;20428;-58
2023/10/29 14:15:57;;;;;;;5.53;1.20;;;;;;;;;;5033008;28;20815;-58
2023/10/29 14:18:23;;;;;;;5.53;1.30;;;;;;;;;;5032232;28;20837;-58
2023/10/29 14:20:48;;;;;;;5.47;1.27;;;;;;;;;;5029594;28;20869;-58
2023/10/29 14:23:14;;;;;;;4.80;1.10;;;;;;;;;;5023955;28;20413;-58
2023/10/29 14:25:39;;;;;;;5.70;1.10;;;;;;;;;;5025750;28;20407;-58
2023/10/29 14:28:04;;;;;;;5.63;1.23;;;;;;;;;;5023628;28;20591;-58
2023/10/29 14:30:30;;;;;;;5.73;1.30;;;;;;;;;;5030783;28;20393;-58
2023/10/29 14:32:56;;;;;;;7.70;1.73;;;;;;;;;;5030930;28;20476;-58
2023/10/29 14:35:22;;;;;;;7.00;1.37;;;;;;;;;;5030635;28;20923;-58